createdAt,value
2023-03-22T00:00:16.208Z,99.99
2023-03-22T00:01:16.342Z,99.99
2023-03-22T00:02:16.514Z,99.99
2023-03-22T00:03:16.226Z,99.99
2023-03-22T00:04:16.313Z,99.99
2023-03-22T00:05:16.247Z,99.99
2023-03-22T00:06:19.024Z,99.99
2023-03-22T00:07:16.236Z,99.99
2023-03-22T00:08:16.243Z,99.99
2023-03-22T00:09:16.224Z,99.99
2023-03-22T00:10:16.242Z,99.99
2023-03-22T00:11:16.220Z,99.99
2023-03-22T00:12:16.229Z,99.99
2023-03-22T00:13:16.223Z,99.99
2023-03-22T00:14:16.226Z,99.99
2023-03-22T00:15:16.250Z,99.99
2023-03-22T00:16:16.339Z,99.99
2023-03-22T00:17:19.288Z,99.99
2023-03-22T00:18:16.237Z,99.99
2023-03-22T00:19:16.232Z,99.99
2023-03-22T00:20:16.246Z,99.99
2023-03-22T00:21:16.291Z,99.99
2023-03-22T00:22:16.271Z,99.99
2023-03-22T00:23:16.271Z,99.99
2023-03-22T00:24:16.240Z,99.99
2023-03-22T00:25:16.235Z,99.99
2023-03-22T00:26:16.299Z,99.99
2023-03-22T00:27:16.257Z,99.99
2023-03-22T00:28:19.109Z,99.99
2023-03-22T00:29:16.298Z,99.99
2023-03-22T00:30:16.336Z,99.99
2023-03-22T00:31:16.306Z,99.99
2023-03-22T00:32:16.264Z,99.99
2023-03-22T00:33:16.277Z,99.99
2023-03-22T00:34:16.262Z,99.99
2023-03-22T00:35:16.282Z,99.99
2023-03-22T00:36:16.281Z,99.99
2023-03-22T00:37:16.578Z,99.99
2023-03-22T00:38:16.586Z,99.99
2023-03-22T00:39:19.080Z,99.99
2023-03-22T00:40:18.256Z,99.99
2023-03-22T00:41:16.371Z,99.99
2023-03-22T00:42:16.285Z,99.99
2023-03-22T00:43:16.294Z,99.99
2023-03-22T00:44:16.283Z,99.99
2023-03-22T00:45:16.277Z,99.99
2023-03-22T00:46:16.494Z,99.99
2023-03-22T00:47:16.278Z,99.99
2023-03-22T00:48:16.385Z,99.99
2023-03-22T00:49:16.298Z,99.99
2023-03-22T00:50:19.329Z,99.99
2023-03-22T00:51:16.310Z,99.99
2023-03-22T00:52:16.287Z,99.99
2023-03-22T00:53:16.325Z,99.99
2023-03-22T00:54:16.317Z,99.99
2023-03-22T00:55:16.321Z,99.99
2023-03-22T00:56:16.772Z,99.99
2023-03-22T00:57:16.294Z,99.99
2023-03-22T00:58:16.324Z,99.99
2023-03-22T00:59:16.329Z,99.99
2023-03-22T01:00:16.307Z,99.99
2023-03-22T01:01:19.844Z,99.99
2023-03-22T01:02:16.294Z,99.99
2023-03-22T01:03:16.495Z,99.99
2023-03-22T01:04:16.302Z,99.99
2023-03-22T01:05:16.329Z,99.99
2023-03-22T01:06:16.323Z,99.99
2023-03-22T01:07:16.307Z,99.99
2023-03-22T01:08:16.338Z,99.99
2023-03-22T01:09:16.355Z,99.99
2023-03-22T01:10:16.321Z,99.99
2023-03-22T01:11:16.303Z,99.99
2023-03-22T01:12:16.304Z,99.99
2023-03-22T01:13:18.021Z,99.99
2023-03-22T01:14:16.515Z,99.99
2023-03-22T01:15:16.338Z,99.99
2023-03-22T01:16:16.475Z,99.99
2023-03-22T01:17:16.405Z,99.99
2023-03-22T01:18:16.385Z,99.99
2023-03-22T01:19:16.323Z,99.99
2023-03-22T01:20:16.643Z,99.99
2023-03-22T01:21:16.338Z,99.99
2023-03-22T01:22:16.378Z,99.99
2023-03-22T01:23:16.334Z,99.99
2023-03-22T01:24:16.355Z,99.99
2023-03-22T01:25:16.400Z,99.99
2023-03-22T01:26:16.393Z,99.99
2023-03-22T01:27:16.389Z,99.99
2023-03-22T01:28:16.396Z,99.99
2023-03-22T01:29:16.349Z,99.99
2023-03-22T01:30:16.376Z,99.99
2023-03-22T01:31:16.517Z,99.99
2023-03-22T01:32:16.341Z,99.99
2023-03-22T01:33:16.627Z,99.99
2023-03-22T01:34:16.352Z,99.99
2023-03-22T01:35:16.365Z,99.99
2023-03-22T01:36:16.395Z,99.99
2023-03-22T01:37:16.350Z,99.99
2023-03-22T01:38:16.354Z,99.99
2023-03-22T01:39:16.355Z,99.99
2023-03-22T01:40:16.380Z,99.99
2023-03-22T01:41:16.457Z,99.99
2023-03-22T01:42:16.403Z,99.99
2023-03-22T01:43:16.418Z,99.99
2023-03-22T01:44:16.371Z,99.99
2023-03-22T01:45:16.386Z,99.99
2023-03-22T01:46:16.590Z,99.99
2023-03-22T01:47:16.375Z,99.99
2023-03-22T01:48:16.564Z,99.99
2023-03-22T01:49:16.525Z,99.99
2023-03-22T01:50:16.422Z,99.99
2023-03-22T01:51:16.417Z,99.99
2023-03-22T01:52:16.392Z,99.99
2023-03-22T01:53:16.405Z,99.99
2023-03-22T01:54:16.392Z,99.99
2023-03-22T01:55:16.383Z,99.99
2023-03-22T01:56:16.429Z,99.99
2023-03-22T01:57:16.463Z,99.99
2023-03-22T01:58:16.401Z,99.99
2023-03-22T01:59:16.391Z,99.99
2023-03-22T02:00:19.287Z,99.99
2023-03-22T02:01:16.654Z,99.99
2023-03-22T02:02:16.519Z,99.99
2023-03-22T02:03:16.418Z,99.99
2023-03-22T02:04:16.399Z,99.99
2023-03-22T02:05:16.432Z,99.99
2023-03-22T02:06:16.444Z,99.99
2023-03-22T02:07:16.409Z,99.99
2023-03-22T02:08:16.408Z,99.99
2023-03-22T02:09:16.406Z,99.99
2023-03-22T02:10:16.435Z,99.99
2023-03-22T02:11:17.584Z,99.99
2023-03-22T02:12:16.441Z,99.99
2023-03-22T02:13:16.430Z,99.99
2023-03-22T02:14:16.416Z,99.99
2023-03-22T02:15:16.431Z,99.99
2023-03-22T02:16:16.541Z,99.99
2023-03-22T02:17:16.421Z,99.99
2023-03-22T02:18:16.575Z,99.99
2023-03-22T02:19:16.424Z,99.99
2023-03-22T02:20:16.468Z,99.99
2023-03-22T02:21:16.473Z,99.99
2023-03-22T02:22:19.201Z,99.99
2023-03-22T02:23:16.432Z,99.99
2023-03-22T02:24:16.440Z,99.99
2023-03-22T02:25:16.438Z,99.99
2023-03-22T02:26:16.467Z,99.99
2023-03-22T02:27:16.450Z,99.99
2023-03-22T02:28:16.458Z,99.99
2023-03-22T02:29:16.554Z,99.99
2023-03-22T02:30:16.466Z,99.99
2023-03-22T02:31:16.635Z,99.99
2023-03-22T02:32:16.459Z,99.99
2023-03-22T02:33:19.491Z,99.99
2023-03-22T02:34:16.449Z,99.99
2023-03-22T02:35:16.468Z,99.99
2023-03-22T02:36:16.499Z,99.99
2023-03-22T02:37:16.461Z,99.99
2023-03-22T02:38:16.462Z,99.99
2023-03-22T02:39:16.500Z,99.99
2023-03-22T02:40:16.503Z,99.99
2023-03-22T02:41:16.489Z,99.99
2023-03-22T02:42:16.487Z,99.99
2023-03-22T02:43:16.463Z,99.99
2023-03-22T02:44:19.337Z,99.99
2023-03-22T02:45:16.487Z,99.99
2023-03-22T02:46:16.652Z,99.99
2023-03-22T02:47:16.471Z,99.99
2023-03-22T02:48:16.850Z,99.99
2023-03-22T02:49:16.516Z,99.99
2023-03-22T02:50:16.475Z,99.99
2023-03-22T02:51:16.526Z,99.99
2023-03-22T02:52:16.500Z,99.99
2023-03-22T02:53:16.480Z,99.99
2023-03-22T02:54:16.476Z,99.99
2023-03-22T02:55:19.514Z,99.99
2023-03-22T02:56:16.515Z,99.99
2023-03-22T02:57:16.489Z,99.99
2023-03-22T02:58:16.511Z,99.99
2023-03-22T02:59:16.494Z,99.99
2023-03-22T03:00:16.547Z,99.99
2023-03-22T03:01:16.591Z,99.99
2023-03-22T03:02:16.582Z,99.99
2023-03-22T03:03:16.486Z,99.99
2023-03-22T03:04:16.521Z,99.99
2023-03-22T03:05:16.566Z,99.99
2023-03-22T03:06:18.330Z,99.99
2023-03-22T03:07:16.519Z,99.99
2023-03-22T03:08:16.520Z,99.99
2023-03-22T03:09:16.517Z,99.99
2023-03-22T03:10:16.500Z,99.99
2023-03-22T03:11:16.539Z,99.99
2023-03-22T03:12:16.506Z,99.99
2023-03-22T03:13:16.507Z,99.99
2023-03-22T03:14:16.524Z,99.99
2023-03-22T03:15:16.539Z,99.99
2023-03-22T03:16:16.626Z,99.99
2023-03-22T03:17:19.637Z,99.99
2023-03-22T03:18:16.527Z,99.99
2023-03-22T03:19:16.566Z,99.99
2023-03-22T03:20:16.551Z,99.99
2023-03-22T03:21:16.557Z,99.99
2023-03-22T03:22:16.539Z,99.99
2023-03-22T03:23:16.535Z,99.99
2023-03-22T03:24:16.523Z,99.99
2023-03-22T03:25:16.524Z,99.99
2023-03-22T03:26:16.522Z,99.99
2023-03-22T03:27:16.529Z,99.99
2023-03-22T03:28:16.540Z,99.99
2023-03-22T03:29:16.538Z,99.99
2023-03-22T03:30:16.569Z,99.99
2023-03-22T03:31:16.697Z,99.99
2023-03-22T03:32:16.593Z,99.99
2023-03-22T03:33:16.573Z,99.99
2023-03-22T03:34:16.572Z,99.99
2023-03-22T03:35:16.547Z,99.99
2023-03-22T03:36:16.574Z,99.99
2023-03-22T03:37:16.581Z,99.99
2023-03-22T03:38:16.534Z,99.99
2023-03-22T03:39:16.560Z,99.99
2023-03-22T03:40:16.572Z,99.99
2023-03-22T03:41:16.555Z,99.99
2023-03-22T03:42:16.584Z,99.99
2023-03-22T03:43:16.561Z,99.99
2023-03-22T03:44:16.568Z,99.99
2023-03-22T03:45:16.550Z,99.99
2023-03-22T03:46:16.676Z,99.99
2023-03-22T03:47:16.587Z,99.99
2023-03-22T03:48:16.717Z,99.99
2023-03-22T03:49:16.567Z,99.99
2023-03-22T03:50:16.567Z,99.99
2023-03-22T03:51:16.606Z,99.99
2023-03-22T03:52:16.594Z,99.99
2023-03-22T03:53:16.647Z,99.99
2023-03-22T03:54:16.586Z,99.99
2023-03-22T03:55:16.588Z,99.99
2023-03-22T03:56:16.583Z,99.99
2023-03-22T03:57:16.680Z,99.99
2023-03-22T03:58:16.573Z,99.99
2023-03-22T03:59:16.636Z,99.99
2023-03-22T04:00:16.600Z,99.99
2023-03-22T04:01:16.595Z,99.99
2023-03-22T04:02:16.739Z,99.99
2023-03-22T04:03:16.602Z,99.99
2023-03-22T04:04:16.957Z,99.99
2023-03-22T04:05:16.598Z,99.99
2023-03-22T04:06:16.584Z,99.99
2023-03-22T04:07:16.596Z,99.99
2023-03-22T04:08:16.610Z,99.99
2023-03-22T04:09:16.627Z,99.99
2023-03-22T04:10:16.621Z,99.99
2023-03-22T04:11:16.604Z,99.99
2023-03-22T04:12:16.606Z,99.99
2023-03-22T04:13:16.603Z,99.99
2023-03-22T04:14:16.595Z,99.99
2023-03-22T04:15:16.620Z,99.99
2023-03-22T04:16:16.764Z,99.99
2023-03-22T04:17:16.613Z,99.99
2023-03-22T04:18:16.621Z,99.99
2023-03-22T04:19:16.635Z,99.99
2023-03-22T04:20:16.671Z,99.99
2023-03-22T04:21:16.621Z,99.99
2023-03-22T04:22:16.614Z,99.99
2023-03-22T04:23:16.622Z,99.99
2023-03-22T04:24:16.627Z,99.99
2023-03-22T04:25:16.635Z,99.99
2023-03-22T04:26:16.720Z,99.99
2023-03-22T04:27:19.642Z,99.99
2023-03-22T04:28:16.625Z,99.99
2023-03-22T04:29:16.639Z,99.99
2023-03-22T04:30:16.652Z,99.99
2023-03-22T04:31:16.731Z,99.99
2023-03-22T04:32:16.641Z,99.99
2023-03-22T04:33:16.633Z,99.99
2023-03-22T04:34:16.633Z,99.99
2023-03-22T04:35:16.677Z,99.99
2023-03-22T04:36:16.671Z,99.99
2023-03-22T04:37:16.644Z,99.99
2023-03-22T04:38:17.690Z,99.99
2023-03-22T04:39:16.642Z,99.99
2023-03-22T04:40:16.689Z,99.99
2023-03-22T04:41:16.664Z,99.99
2023-03-22T04:42:16.650Z,99.99
2023-03-22T04:43:16.672Z,99.99
2023-03-22T04:44:16.658Z,99.99
2023-03-22T04:45:16.706Z,99.99
2023-03-22T04:46:16.760Z,99.99
2023-03-22T04:47:16.651Z,99.99
2023-03-22T04:48:16.779Z,99.99
2023-03-22T04:49:19.472Z,99.99
2023-03-22T04:50:16.645Z,99.99
2023-03-22T04:51:16.668Z,99.99
2023-03-22T04:52:16.679Z,99.99
2023-03-22T04:53:16.660Z,99.99
2023-03-22T04:54:16.685Z,99.99
2023-03-22T04:55:16.698Z,99.99
2023-03-22T04:56:16.658Z,99.99
2023-03-22T04:57:16.712Z,99.99
2023-03-22T04:58:16.676Z,99.99
2023-03-22T04:59:16.665Z,99.99
2023-03-22T05:00:19.511Z,99.99
2023-03-22T05:01:16.822Z,99.99
2023-03-22T05:02:16.701Z,99.99
2023-03-22T05:03:16.737Z,99.99
2023-03-22T05:04:16.692Z,99.99
2023-03-22T05:05:16.752Z,99.99
2023-03-22T05:06:16.682Z,99.99
2023-03-22T05:07:16.692Z,99.99
2023-03-22T05:08:16.708Z,99.99
2023-03-22T05:09:16.682Z,99.99
2023-03-22T05:10:16.700Z,99.99
2023-03-22T05:11:19.519Z,99.99
2023-03-22T05:12:16.723Z,99.99
2023-03-22T05:13:16.713Z,99.99
2023-03-22T05:14:16.830Z,99.99
2023-03-22T05:15:16.716Z,99.99
2023-03-22T05:16:16.900Z,99.99
2023-03-22T05:17:16.721Z,99.99
2023-03-22T05:18:16.723Z,99.99
2023-03-22T05:19:16.724Z,99.99
2023-03-22T05:20:16.698Z,99.99
2023-03-22T05:21:17.402Z,99.99
2023-03-22T05:22:17.799Z,99.99
2023-03-22T05:23:16.725Z,99.99
2023-03-22T05:24:16.729Z,99.99
2023-03-22T05:25:16.716Z,99.99
2023-03-22T05:26:16.711Z,99.99
2023-03-22T05:27:16.883Z,99.99
2023-03-22T05:28:16.712Z,99.99
2023-03-22T05:29:16.752Z,99.99
2023-03-22T05:30:19.716Z,99.99
2023-03-22T05:31:16.845Z,99.99
2023-03-22T05:32:16.762Z,99.99
2023-03-22T05:33:19.604Z,99.99
2023-03-22T05:34:16.732Z,99.99
2023-03-22T05:35:16.729Z,99.99
2023-03-22T05:36:16.756Z,99.99
2023-03-22T05:37:16.597Z,99.99
2023-03-22T05:38:16.753Z,99.99
2023-03-22T05:39:16.733Z,99.99
2023-03-22T05:40:16.757Z,99.99
2023-03-22T05:41:16.757Z,99.99
2023-03-22T05:42:16.758Z,99.99
2023-03-22T05:43:16.731Z,99.99
2023-03-22T05:44:19.762Z,99.99
2023-03-22T05:45:16.772Z,99.99
2023-03-22T05:46:16.821Z,99.99
2023-03-22T05:47:16.785Z,99.99
2023-03-22T05:48:16.834Z,99.99
2023-03-22T05:49:16.790Z,99.99
2023-03-22T05:50:16.762Z,99.99
2023-03-22T05:51:16.766Z,99.99
2023-03-22T05:52:16.782Z,99.99
2023-03-22T05:53:16.752Z,99.99
2023-03-22T05:54:16.799Z,99.99
2023-03-22T05:55:16.767Z,99.99
2023-03-22T05:56:16.781Z,99.99
2023-03-22T05:57:16.789Z,99.99
2023-03-22T05:58:16.770Z,99.99
2023-03-22T05:59:16.761Z,99.99
2023-03-22T06:00:16.778Z,99.99
2023-03-22T06:01:16.786Z,99.99
2023-03-22T06:02:16.932Z,99.99
2023-03-22T06:03:19.199Z,99.99
2023-03-22T06:04:16.781Z,99.99
2023-03-22T06:05:16.766Z,99.99
2023-03-22T06:06:16.777Z,99.99
2023-03-22T06:07:16.796Z,99.99
2023-03-22T06:08:16.778Z,99.99
2023-03-22T06:09:20.084Z,99.99
2023-03-22T06:10:16.781Z,99.99
2023-03-22T06:11:16.788Z,99.99
2023-03-22T06:12:16.866Z,99.99
2023-03-22T06:13:16.982Z,99.99
2023-03-22T06:14:16.784Z,99.99
2023-03-22T06:15:16.784Z,99.99
2023-03-22T06:16:16.852Z,99.99
2023-03-22T06:17:16.839Z,99.99
2023-03-22T06:18:16.808Z,99.99
2023-03-22T06:19:16.801Z,99.99
2023-03-22T06:20:16.866Z,99.99
2023-03-22T06:21:16.800Z,99.99
2023-03-22T06:22:16.825Z,99.99
2023-03-22T06:23:16.801Z,99.99
2023-03-22T06:24:16.795Z,99.99
2023-03-22T06:25:16.819Z,99.99
2023-03-22T06:26:16.815Z,99.99
2023-03-22T06:27:16.848Z,99.99
2023-03-22T06:28:16.870Z,99.99
2023-03-22T06:29:16.820Z,99.99
2023-03-22T06:30:16.819Z,99.99
2023-03-22T06:31:17.047Z,99.99
2023-03-22T06:32:16.823Z,99.99
2023-03-22T06:33:16.855Z,99.99
2023-03-22T06:34:16.842Z,99.99
2023-03-22T06:35:16.862Z,99.99
2023-03-22T06:36:16.820Z,99.99
2023-03-22T06:37:16.848Z,99.99
2023-03-22T06:38:16.895Z,99.99
2023-03-22T06:39:16.821Z,99.99
2023-03-22T06:40:16.838Z,99.99
2023-03-22T06:41:16.824Z,99.99
2023-03-22T06:42:16.856Z,99.99
2023-03-22T06:43:16.815Z,99.99
2023-03-22T06:44:16.865Z,99.99
2023-03-22T06:45:16.861Z,99.99
2023-03-22T06:46:17.072Z,99.99
2023-03-22T06:47:16.861Z,99.99
2023-03-22T06:48:17.022Z,99.99
2023-03-22T06:49:16.876Z,99.99
2023-03-22T06:50:16.850Z,99.99
2023-03-22T06:51:16.868Z,99.99
2023-03-22T06:52:16.861Z,99.99
2023-03-22T06:53:16.875Z,99.99
2023-03-22T06:54:19.967Z,99.99
2023-03-22T06:55:16.853Z,99.99
2023-03-22T06:56:16.871Z,99.99
2023-03-22T06:57:16.860Z,99.99
2023-03-22T06:58:16.870Z,99.99
2023-03-22T06:59:16.841Z,99.99
2023-03-22T07:00:16.888Z,99.99
2023-03-22T07:01:16.983Z,99.99
2023-03-22T07:02:16.900Z,99.99
2023-03-22T07:03:16.848Z,99.99
2023-03-22T07:04:17.019Z,99.99
2023-03-22T07:05:19.700Z,99.99
2023-03-22T07:06:16.695Z,99.99
2023-03-22T07:07:16.722Z,99.99
2023-03-22T07:08:16.882Z,99.99
2023-03-22T07:09:16.857Z,99.99
2023-03-22T07:10:16.881Z,99.99
2023-03-22T07:11:16.870Z,99.99
2023-03-22T07:12:17.190Z,99.99
2023-03-22T07:13:16.717Z,99.99
2023-03-22T07:14:16.880Z,99.99
2023-03-22T07:15:16.877Z,99.99
2023-03-22T07:16:22.343Z,99.99
2023-03-22T07:17:16.911Z,99.99
2023-03-22T07:18:16.895Z,99.99
2023-03-22T07:19:16.882Z,99.99
2023-03-22T07:20:16.938Z,99.99
2023-03-22T07:21:16.957Z,99.99
2023-03-22T07:22:16.936Z,99.99
2023-03-22T07:23:16.910Z,99.99
2023-03-22T07:24:16.896Z,99.99
2023-03-22T07:25:16.899Z,99.99
2023-03-22T07:26:16.959Z,99.99
2023-03-22T07:27:20.765Z,99.99
2023-03-22T07:28:16.918Z,99.99
2023-03-22T07:29:16.917Z,99.99
2023-03-22T07:30:16.896Z,99.99
2023-03-22T07:31:16.936Z,99.99
2023-03-22T07:32:17.067Z,99.99
2023-03-22T07:33:16.907Z,99.99
2023-03-22T07:34:16.956Z,99.99
2023-03-22T07:35:17.018Z,99.99
2023-03-22T07:36:16.924Z,99.99
2023-03-22T07:37:16.973Z,99.99
2023-03-22T07:38:20.061Z,99.99
2023-03-22T07:39:16.923Z,99.99
2023-03-22T07:40:16.932Z,99.99
2023-03-22T07:41:16.915Z,99.99
2023-03-22T07:42:16.938Z,99.99
2023-03-22T07:43:16.923Z,99.99
2023-03-22T07:44:20.205Z,99.99
2023-03-22T07:45:17.027Z,99.99
2023-03-22T07:46:17.039Z,99.99
2023-03-22T07:47:20.343Z,99.99
2023-03-22T07:48:17.135Z,99.99
2023-03-22T07:49:19.752Z,99.99
2023-03-22T07:50:17.055Z,99.99
2023-03-22T07:51:16.982Z,99.99
2023-03-22T07:52:16.968Z,99.82
2023-03-22T07:53:16.986Z,98.86
2023-03-22T07:54:34.774Z,98.82
2023-03-22T07:55:17.172Z,99.2
2023-03-22T07:56:16.964Z,99.58
2023-03-22T07:57:16.990Z,99.54
2023-03-22T07:58:16.970Z,99.68
2023-03-22T07:59:17.137Z,99.4
2023-03-22T08:00:19.753Z,99.3
2023-03-22T08:01:16.987Z,97.86
2023-03-22T08:02:17.161Z,97.57
2023-03-22T08:03:17.096Z,97.66
2023-03-22T08:04:17.001Z,98.34
2023-03-22T08:05:16.996Z,97.28
2023-03-22T08:06:17.029Z,96.8
2023-03-22T08:07:16.994Z,95.65
2023-03-22T08:08:16.987Z,95.21
2023-03-22T08:09:17.020Z,94.93
2023-03-22T08:10:17.026Z,96.22
2023-03-22T08:11:20.054Z,96.61
2023-03-22T08:12:17.077Z,96.9
2023-03-22T08:13:16.976Z,96.99
2023-03-22T08:14:22.185Z,97.38
2023-03-22T08:15:16.988Z,96.75
2023-03-22T08:16:17.067Z,95.79
2023-03-22T08:17:17.015Z,96.03
2023-03-22T08:18:17.000Z,95.45
2023-03-22T08:19:16.995Z,95.55
2023-03-22T08:20:17.042Z,94.73
2023-03-22T08:21:17.203Z,93.87
2023-03-22T08:22:19.848Z,93.87
2023-03-22T08:23:16.994Z,93.43
2023-03-22T08:24:17.010Z,93.05
2023-03-22T08:25:17.039Z,93.43
2023-03-22T08:26:17.092Z,92.18
2023-03-22T08:27:17.033Z,91.7
2023-03-22T08:28:17.040Z,91.89
2023-03-22T08:29:17.018Z,93.53
2023-03-22T08:30:17.047Z,90.83
2023-03-22T08:31:17.812Z,91.55
2023-03-22T08:32:17.070Z,92.33
2023-03-22T08:33:17.030Z,91.41
2023-03-22T08:34:17.015Z,92.18
2023-03-22T08:35:17.061Z,92.61
2023-03-22T08:36:17.099Z,92.57
2023-03-22T08:37:17.103Z,92.38
2023-03-22T08:38:17.028Z,92.29
2023-03-22T08:39:17.046Z,93.05
2023-03-22T08:40:17.122Z,91.75
2023-03-22T08:41:17.069Z,91.46
2023-03-22T08:42:17.076Z,91.94
2023-03-22T08:43:17.047Z,91.17
2023-03-22T08:44:17.082Z,90.79
2023-03-22T08:45:17.063Z,90.83
2023-03-22T08:46:17.226Z,89.78
2023-03-22T08:47:17.093Z,89.24
2023-03-22T08:48:17.188Z,89.24
2023-03-22T08:49:17.072Z,88.43
2023-03-22T08:50:17.067Z,88.91
2023-03-22T08:51:18.330Z,89.88
2023-03-22T08:52:17.116Z,90.41
2023-03-22T08:53:17.069Z,90.45
2023-03-22T08:54:17.064Z,90.31
2023-03-22T08:55:17.063Z,90.69
2023-03-22T08:56:17.047Z,90.59
2023-03-22T08:57:17.119Z,90.31
2023-03-22T08:58:17.054Z,90.41
2023-03-22T08:59:17.064Z,89.54
2023-03-22T09:00:17.097Z,89.49
2023-03-22T09:01:17.235Z,89.1
2023-03-22T09:02:17.276Z,88.43
2023-03-22T09:03:17.113Z,88.53
2023-03-22T09:04:17.177Z,89.64
2023-03-22T09:05:20.115Z,88.87
2023-03-22T09:06:17.088Z,88.43
2023-03-22T09:07:17.110Z,88.24
2023-03-22T09:08:21.869Z,87.95
2023-03-22T09:09:17.088Z,88.33
2023-03-22T09:10:17.089Z,88.62
2023-03-22T09:11:19.880Z,88.28
2023-03-22T09:12:17.173Z,87.55
2023-03-22T09:13:17.125Z,86.49
2023-03-22T09:14:17.130Z,86.11
2023-03-22T09:15:17.121Z,86.65
2023-03-22T09:16:17.354Z,87.55
2023-03-22T09:17:17.129Z,86.44
2023-03-22T09:18:17.098Z,86.05
2023-03-22T09:19:17.097Z,85.19
2023-03-22T09:20:17.118Z,84.9
2023-03-22T09:21:20.222Z,84.8
2023-03-22T09:22:17.148Z,84.46
2023-03-22T09:23:17.166Z,84.01
2023-03-22T09:24:17.143Z,83.09
2023-03-22T09:25:17.118Z,84.27
2023-03-22T09:26:17.102Z,84.8
2023-03-22T09:27:17.142Z,85.34
2023-03-22T09:28:17.282Z,84.28
2023-03-22T09:29:17.148Z,83.8
2023-03-22T09:30:17.178Z,83.7
2023-03-22T09:31:19.823Z,83.99
2023-03-22T09:32:18.847Z,84.33
2023-03-22T09:33:17.121Z,84.91
2023-03-22T09:34:17.143Z,85.2
2023-03-22T09:35:17.135Z,85.49
2023-03-22T09:36:17.132Z,86.16
2023-03-22T09:37:17.162Z,85.49
2023-03-22T09:38:17.128Z,86.02
2023-03-22T09:39:17.145Z,86.99
2023-03-22T09:40:17.197Z,85.87
2023-03-22T09:41:17.144Z,86.07
2023-03-22T09:42:17.170Z,85.87
2023-03-22T09:43:19.986Z,85.3
2023-03-22T09:44:17.150Z,83.85
2023-03-22T09:45:17.250Z,83.85
2023-03-22T09:46:17.324Z,84.53
2023-03-22T09:47:17.180Z,85.1
2023-03-22T09:48:17.299Z,85.34
2023-03-22T09:49:17.183Z,84.61
2023-03-22T09:50:17.158Z,84.38
2023-03-22T09:51:17.163Z,84.95
2023-03-22T09:52:17.340Z,85.09
2023-03-22T09:53:17.153Z,84.56
2023-03-22T09:54:20.044Z,84.28
2023-03-22T09:55:17.190Z,84.53
2023-03-22T09:56:17.225Z,84.53
2023-03-22T09:57:17.233Z,84.72
2023-03-22T09:58:17.248Z,83.94
2023-03-22T09:59:17.172Z,82.93
2023-03-22T10:00:17.354Z,83.37
2023-03-22T10:01:20.362Z,83.85
2023-03-22T10:02:17.512Z,83.51
2023-03-22T10:03:17.168Z,83.99
2023-03-22T10:04:17.287Z,84.66
2023-03-22T10:05:17.365Z,85.53
2023-03-22T10:06:17.180Z,84.7
2023-03-22T10:07:17.197Z,84.75
2023-03-22T10:08:17.179Z,84.22
2023-03-22T10:09:17.200Z,84.56
2023-03-22T10:10:17.198Z,85.39
2023-03-22T10:11:17.213Z,85.35
2023-03-22T10:12:17.260Z,85.54
2023-03-22T10:13:17.210Z,85.54
2023-03-22T10:14:17.206Z,86.31
2023-03-22T10:15:17.200Z,87.48
2023-03-22T10:16:20.608Z,87.67
2023-03-22T10:17:17.260Z,87.04
2023-03-22T10:18:17.247Z,86.6
2023-03-22T10:19:17.255Z,85.87
2023-03-22T10:20:17.213Z,85.54
2023-03-22T10:21:17.225Z,85.68
2023-03-22T10:22:17.289Z,85.16
2023-03-22T10:23:17.205Z,85.35
2023-03-22T10:24:17.240Z,85.83
2023-03-22T10:25:17.230Z,86.02
2023-03-22T10:26:17.210Z,86.12
2023-03-22T10:27:18.628Z,85.39
2023-03-22T10:28:17.267Z,85.35
2023-03-22T10:29:17.268Z,85.2
2023-03-22T10:30:17.225Z,84.72
2023-03-22T10:31:17.294Z,84.14
2023-03-22T10:32:17.287Z,84.14
2023-03-22T10:33:17.245Z,83.51
2023-03-22T10:34:17.243Z,83.45
2023-03-22T10:35:17.232Z,82.49
2023-03-22T10:36:17.240Z,82.54
2023-03-22T10:37:17.244Z,83.26
2023-03-22T10:38:20.288Z,82.97
2023-03-22T10:39:17.240Z,82.78
2023-03-22T10:40:17.264Z,82.14
2023-03-22T10:41:17.269Z,81.47
2023-03-22T10:42:17.244Z,81.62
2023-03-22T10:43:17.260Z,81.43
2023-03-22T10:44:17.265Z,81.81
2023-03-22T10:45:17.475Z,81.62
2023-03-22T10:46:17.447Z,82.14
2023-03-22T10:47:17.257Z,81.37
2023-03-22T10:48:19.699Z,81.37
2023-03-22T10:49:20.302Z,81.57
2023-03-22T10:50:17.523Z,82.14
2023-03-22T10:51:17.293Z,81.85
2023-03-22T10:52:17.297Z,82.05
2023-03-22T10:53:17.266Z,81.12
2023-03-22T10:54:17.290Z,80.54
2023-03-22T10:55:17.270Z,80.35
2023-03-22T10:56:17.275Z,79.81
2023-03-22T10:57:17.386Z,78.75
2023-03-22T10:58:17.298Z,78.46
2023-03-22T10:59:17.286Z,78.61
2023-03-22T11:00:20.281Z,78.71
2023-03-22T11:01:17.617Z,78.36
2023-03-22T11:02:17.523Z,78.27
2023-03-22T11:03:17.376Z,78.56
2023-03-22T11:04:17.326Z,78.89
2023-03-22T11:05:17.333Z,78.56
2023-03-22T11:06:17.350Z,78.56
2023-03-22T11:07:17.314Z,78.46
2023-03-22T11:08:17.313Z,78.66
2023-03-22T11:09:17.301Z,79.1
2023-03-22T11:10:17.497Z,79.58
2023-03-22T11:11:17.357Z,79.29
2023-03-22T11:12:17.319Z,78.91
2023-03-22T11:13:17.304Z,78.91
2023-03-22T11:14:17.301Z,78.67
2023-03-22T11:15:17.303Z,79.06
2023-03-22T11:16:17.422Z,80.51
2023-03-22T11:17:17.317Z,79.77
2023-03-22T11:18:17.338Z,79.1
2023-03-22T11:19:17.343Z,78.91
2023-03-22T11:20:17.491Z,79.49
2023-03-22T11:21:17.362Z,79.62
2023-03-22T11:22:17.331Z,78.5
2023-03-22T11:23:17.161Z,78.17
2023-03-22T11:24:17.339Z,77.05
2023-03-22T11:25:17.195Z,76.57
2023-03-22T11:26:17.333Z,76.76
2023-03-22T11:27:17.342Z,76.7
2023-03-22T11:28:17.403Z,77.21
2023-03-22T11:29:17.351Z,77.21
2023-03-22T11:30:17.457Z,78.21
2023-03-22T11:31:17.516Z,78.17
2023-03-22T11:32:17.619Z,78.75
2023-03-22T11:33:17.581Z,78.27
2023-03-22T11:34:17.433Z,78.13
2023-03-22T11:35:17.352Z,77.88
2023-03-22T11:36:17.398Z,77.88
2023-03-22T11:37:20.341Z,77.92
2023-03-22T11:38:18.933Z,77.63
2023-03-22T11:39:17.378Z,77.34
2023-03-22T11:40:17.486Z,77.15
2023-03-22T11:41:17.386Z,77.48
2023-03-22T11:42:17.364Z,76.76
2023-03-22T11:43:17.433Z,76.37
2023-03-22T11:44:17.431Z,76.86
2023-03-22T11:45:17.376Z,76.9
2023-03-22T11:46:17.493Z,76.51
2023-03-22T11:47:17.391Z,76.8
2023-03-22T11:48:18.289Z,77.28
2023-03-22T11:49:17.469Z,76.7
2023-03-22T11:50:17.415Z,76.12
2023-03-22T11:51:17.389Z,76.12
2023-03-22T11:52:17.386Z,75.45
2023-03-22T11:53:17.464Z,75.6
2023-03-22T11:54:17.392Z,75.54
2023-03-22T11:55:17.391Z,75.57
2023-03-22T11:56:17.382Z,76.15
2023-03-22T11:57:17.490Z,76.95
2023-03-22T11:58:17.427Z,76.76
2023-03-22T11:59:20.502Z,76.51
2023-03-22T12:00:17.415Z,76.55
2023-03-22T12:01:17.429Z,76.9
2023-03-22T12:02:17.480Z,75.93
2023-03-22T12:03:17.723Z,75.51
2023-03-22T12:04:17.515Z,75.7
2023-03-22T12:05:17.584Z,75.67
2023-03-22T12:06:17.540Z,75.51
2023-03-22T12:07:17.415Z,75.89
2023-03-22T12:08:17.431Z,76.05
2023-03-22T12:09:17.448Z,76.18
2023-03-22T12:10:20.212Z,75.85
2023-03-22T12:11:17.422Z,76.01
2023-03-22T12:12:17.441Z,76.59
2023-03-22T12:13:17.488Z,76.5
2023-03-22T12:14:17.458Z,76.82
2023-03-22T12:15:17.431Z,76.5
2023-03-22T12:16:17.599Z,77.42
2023-03-22T12:17:17.417Z,77.23
2023-03-22T12:18:17.673Z,77.81
2023-03-22T12:19:17.431Z,78.38
2023-03-22T12:20:17.485Z,78.29
2023-03-22T12:21:20.527Z,78.29
2023-03-22T12:22:17.464Z,78.91
2023-03-22T12:23:17.525Z,77.84
2023-03-22T12:24:17.451Z,77.51
2023-03-22T12:25:19.317Z,77.03
2023-03-22T12:26:17.449Z,77.9
2023-03-22T12:27:17.454Z,78.67
2023-03-22T12:28:17.484Z,78.13
2023-03-22T12:29:17.626Z,77.26
2023-03-22T12:30:17.655Z,77.59
2023-03-22T12:31:17.593Z,76.92
2023-03-22T12:32:20.314Z,77.44
2023-03-22T12:33:17.627Z,76.51
2023-03-22T12:34:17.484Z,75.79
2023-03-22T12:35:20.388Z,76.47
2023-03-22T12:36:17.545Z,75.93
2023-03-22T12:37:17.492Z,76.61
2023-03-22T12:38:17.492Z,76.74
2023-03-22T12:39:17.479Z,75.35
2023-03-22T12:40:17.586Z,75.06
2023-03-22T12:41:17.660Z,74.73
2023-03-22T12:42:17.480Z,75.76
2023-03-22T12:43:18.752Z,75.12
2023-03-22T12:44:17.485Z,74.99
2023-03-22T12:45:17.518Z,75.09
2023-03-22T12:46:17.534Z,74.25
2023-03-22T12:47:17.625Z,73.86
2023-03-22T12:48:17.717Z,74.21
2023-03-22T12:49:17.538Z,74.89
2023-03-22T12:50:17.499Z,75.89
2023-03-22T12:51:17.534Z,75.7
2023-03-22T12:52:17.584Z,75.51
2023-03-22T12:53:17.537Z,74.79